Time;durP1;ratioP1;P1;durP2;ratioP2;P2;SDS_P1;SDS_P2;PMS_P1;PMS_P2;Temp;Humidity;BMP_temperature;BMP_pressure;BME280_temperature;BME280_humidity;BME280_pressure;Samples;Min_cycle;Max_cycle;Signal;HPM_P1;HPM_P2
2023/12/03 00:02:18;;;;;;;42.13;22.57;;;1.90;99.90;;;;;;5075604;28;20624;-75
2023/12/03 00:04:44;;;;;;;40.60;22.50;;;1.80;99.90;;;;;;5075511;28;20230;-75
2023/12/03 00:07:10;;;;;;;44.57;23.43;;;1.80;99.90;;;;;;5074533;28;20222;-74
2023/12/03 00:09:38;;;;;;;43.60;23.30;;;1.70;99.90;;;;;;5075650;28;20183;-74
2023/12/03 00:12:05;;;;;;;44.87;23.23;;;1.70;99.90;;;;;;5075611;28;20348;-75
2023/12/03 00:14:31;;;;;;;43.17;23.07;;;1.70;99.90;;;;;;5075382;28;20572;-75
2023/12/03 00:16:57;;;;;;;44.33;23.40;;;1.70;99.90;;;;;;5075305;28;20226;-75
2023/12/03 00:19:23;;;;;;;42.13;22.70;;;1.70;99.90;;;;;;5075190;28;20173;-74
2023/12/03 00:21:49;;;;;;;46.57;22.97;;;1.70;99.90;;;;;;5075052;28;20164;-74
2023/12/03 00:24:15;;;;;;;42.93;23.80;;;1.60;99.90;;;;;;5074009;28;20176;-75
2023/12/03 00:26:40;;;;;;;41.77;22.37;;;1.60;99.90;;;;;;5075015;28;20235;-75
2023/12/03 00:29:06;;;;;;;43.17;22.60;;;1.50;99.90;;;;;;5075056;28;20181;-75
2023/12/03 00:31:32;;;;;;;41.63;21.93;;;1.50;99.90;;;;;;5074962;28;20656;-74
2023/12/03 00:33:58;;;;;;;42.33;21.73;;;1.60;99.90;;;;;;5074980;28;20176;-74
2023/12/03 00:36:24;;;;;;;40.17;21.03;;;1.50;99.90;;;;;;5074874;28;20595;-74
2023/12/03 00:38:49;;;;;;;43.50;21.73;;;1.40;99.90;;;;;;5074979;28;20176;-75
2023/12/03 00:41:15;;;;;;;42.07;22.10;;;1.50;99.90;;;;;;5074893;28;20211;-74
2023/12/03 00:43:40;;;;;;;39.43;21.43;;;1.50;99.90;;;;;;5074845;28;20210;-75
2023/12/03 00:46:06;;;;;;;42.50;21.73;;;1.50;99.90;;;;;;5073606;28;20172;-75
2023/12/03 00:48:32;;;;;;;40.57;21.63;;;1.40;99.90;;;;;;5074550;28;20287;-75
2023/12/03 00:50:57;;;;;;;43.23;22.50;;;1.40;99.90;;;;;;5074320;28;20318;-74
2023/12/03 00:53:23;;;;;;;44.07;22.93;;;1.40;99.90;;;;;;5074474;28;20173;-75
2023/12/03 00:55:49;;;;;;;39.97;21.00;;;1.50;99.90;;;;;;5074444;28;20255;-74
2023/12/03 00:58:14;;;;;;;39.20;21.60;;;1.40;99.90;;;;;;5074479;28;20255;-75
2023/12/03 01:00:40;;;;;;;44.10;23.43;;;1.40;99.90;;;;;;5074359;28;20714;-75
2023/12/03 01:03:05;;;;;;;41.60;21.17;;;1.40;99.90;;;;;;5074281;28;20173;-75
2023/12/03 01:05:31;;;;;;;40.37;20.97;;;1.40;99.90;;;;;;5074090;28;20590;-75
2023/12/03 01:07:56;;;;;;;39.27;20.67;;;1.40;99.90;;;;;;5074474;28;20172;-75
2023/12/03 01:10:22;;;;;;;40.80;21.37;;;1.40;99.90;;;;;;5074442;28;20640;-75
2023/12/03 01:12:48;;;;;;;44.03;22.13;;;1.40;99.90;;;;;;5074255;28;20616;-75
2023/12/03 01:15:13;;;;;;;45.67;24.63;;;1.30;99.90;;;;;;5074243;28;20207;-75
2023/12/03 01:17:40;;;;;;;41.90;21.07;;;1.30;99.90;;;;;;5073801;28;20685;-75
2023/12/03 01:20:07;;;;;;;42.80;21.30;;;1.20;99.90;;;;;;5072937;28;20229;-75
2023/12/03 01:22:33;;;;;;;42.70;21.50;;;1.20;99.90;;;;;;5074466;28;20632;-76
2023/12/03 01:24:58;;;;;;;45.03;22.67;;;1.20;99.90;;;;;;5074224;28;20200;-75
2023/12/03 01:27:24;;;;;;;43.30;21.70;;;1.20;99.90;;;;;;5073797;28;20760;-75
2023/12/03 01:29:49;;;;;;;43.67;22.27;;;1.20;99.90;;;;;;5074204;28;20213;-75
2023/12/03 01:32:15;;;;;;;41.23;20.90;;;1.20;99.90;;;;;;5073817;28;20160;-75
2023/12/03 01:34:41;;;;;;;41.80;22.27;;;1.30;99.90;;;;;;5073844;28;20667;-75
2023/12/03 01:37:06;;;;;;;42.67;21.67;;;1.30;99.90;;;;;;5073921;28;20161;-75
2023/12/03 01:39:32;;;;;;;40.80;22.23;;;1.30;99.90;;;;;;5073976;28;20211;-75
2023/12/03 01:41:59;;;;;;;42.97;21.93;;;1.30;99.90;;;;;;5073920;28;20586;-75
2023/12/03 01:44:24;;;;;;;47.87;25.57;;;1.30;99.90;;;;;;5073847;28;20636;-75
2023/12/03 01:46:50;;;;;;;47.70;23.03;;;1.30;99.90;;;;;;5073640;28;20165;-74
2023/12/03 01:49:17;;;;;;;48.93;22.50;;;1.30;99.90;;;;;;5073205;28;20165;-75
2023/12/03 01:51:45;;;;;;;46.57;23.20;;;1.30;99.90;;;;;;5073613;28;20613;-75
2023/12/03 01:54:11;;;;;;;42.07;21.33;;;1.20;99.90;;;;;;5073512;28;20164;-75
2023/12/03 01:56:37;;;;;;;43.57;22.87;;;1.20;99.90;;;;;;5073519;28;20172;-74
2023/12/03 01:59:03;;;;;;;46.50;22.83;;;1.20;99.90;;;;;;5073455;28;20608;-75
2023/12/03 02:01:29;;;;;;;45.00;22.40;;;1.20;99.90;;;;;;5073525;28;20243;-75
2023/12/03 02:03:54;;;;;;;44.43;23.33;;;1.20;99.90;;;;;;5072960;28;20199;-75
2023/12/03 02:06:20;;;;;;;46.10;23.33;;;1.20;99.90;;;;;;5073536;28;20169;-75
2023/12/03 02:08:46;;;;;;;48.17;22.73;;;1.10;99.90;;;;;;5073567;28;20200;-75
2023/12/03 02:11:12;;;;;;;45.07;22.27;;;1.20;99.90;;;;;;5073397;28;20205;-75
2023/12/03 02:13:38;;;;;;;44.67;22.47;;;1.10;99.90;;;;;;5073535;28;20512;-75
2023/12/03 02:16:05;;;;;;;48.17;22.10;;;1.20;99.90;;;;;;5073390;28;20176;-75
2023/12/03 02:18:32;;;;;;;43.50;22.23;;;1.10;99.90;;;;;;5072915;28;20163;-73
2023/12/03 02:20:58;;;;;;;43.07;22.63;;;1.10;99.90;;;;;;5073114;28;20219;-75
2023/12/03 02:23:27;;;;;;;45.03;22.70;;;1.10;99.90;;;;;;5073329;28;20525;-75
2023/12/03 02:25:53;;;;;;;46.93;23.43;;;1.10;99.90;;;;;;5073022;28;20219;-75
2023/12/03 02:28:18;;;;;;;48.50;22.83;;;1.10;99.90;;;;;;5073087;28;20590;-76
2023/12/03 02:30:44;;;;;;;45.33;23.30;;;1.20;99.90;;;;;;5072994;28;20268;-75
2023/12/03 02:33:10;;;;;;;46.23;23.50;;;1.20;99.90;;;;;;5072961;28;20191;-75
2023/12/03 02:35:36;;;;;;;49.80;23.87;;;1.20;99.90;;;;;;5073005;28;20204;-75
2023/12/03 02:38:01;;;;;;;45.30;22.30;;;1.20;99.90;;;;;;5073206;28;20216;-75
2023/12/03 02:40:31;;;;;;;47.27;22.00;;;1.20;99.90;;;;;;5071684;28;20208;-75
2023/12/03 02:42:57;;;;;;;44.80;23.40;;;1.20;99.90;;;;;;5072974;28;20200;-74
2023/12/03 02:45:22;;;;;;;49.90;23.47;;;1.10;99.90;;;;;;5072581;28;20203;-74
2023/12/03 02:47:48;;;;;;;51.73;23.30;;;1.10;99.90;;;;;;5072991;28;20239;-75
2023/12/03 02:50:14;;;;;;;44.80;23.03;;;1.10;99.90;;;;;;5072940;28;20172;-74
2023/12/03 02:52:41;;;;;;;47.67;22.63;;;1.10;99.90;;;;;;5071560;28;20171;-75
2023/12/03 02:55:07;;;;;;;48.40;22.73;;;1.10;99.90;;;;;;5072972;28;20184;-74
2023/12/03 02:57:33;;;;;;;44.83;21.93;;;1.10;99.90;;;;;;5072782;28;20237;-74
2023/12/03 02:59:58;;;;;;;46.40;22.63;;;1.10;99.90;;;;;;5072657;28;20208;-73
2023/12/03 03:02:24;;;;;;;49.13;23.87;;;1.10;99.90;;;;;;5071838;28;20251;-74
2023/12/03 03:04:50;;;;;;;47.57;20.93;;;1.10;99.90;;;;;;5072862;28;20176;-74
2023/12/03 03:07:15;;;;;;;47.73;23.13;;;1.00;99.90;;;;;;5071522;28;20258;-74
2023/12/03 03:09:41;;;;;;;51.13;23.63;;;1.00;99.90;;;;;;5072930;28;20167;-75
2023/12/03 03:12:07;;;;;;;48.00;23.30;;;0.90;99.90;;;;;;5072599;28;20169;-74
2023/12/03 03:14:32;;;;;;;45.20;23.27;;;0.90;99.90;;;;;;5072438;28;20559;-74
2023/12/03 03:16:58;;;;;;;51.73;23.40;;;1.00;99.90;;;;;;5072772;28;20173;-75
2023/12/03 03:19:23;;;;;;;47.67;22.33;;;1.00;99.90;;;;;;5072520;28;20172;-75
2023/12/03 03:21:49;;;;;;;45.20;22.17;;;1.00;99.90;;;;;;5071375;28;20218;-75
2023/12/03 03:24:14;;;;;;;45.03;22.50;;;0.90;99.90;;;;;;5072541;28;20229;-74
2023/12/03 03:26:40;;;;;;;47.93;23.13;;;0.90;99.90;;;;;;5072340;28;20217;-75
2023/12/03 03:29:06;;;;;;;47.17;23.33;;;1.00;99.90;;;;;;5071218;28;20195;-74
2023/12/03 03:31:32;;;;;;;50.43;23.73;;;1.00;99.90;;;;;;5072579;28;20187;-75
2023/12/03 03:33:57;;;;;;;46.63;21.73;;;1.10;99.90;;;;;;5072644;28;20167;-74
2023/12/03 03:36:23;;;;;;;45.40;22.70;;;1.10;99.90;;;;;;5072582;28;20169;-74
2023/12/03 03:38:50;;;;;;;46.73;22.77;;;1.00;99.90;;;;;;5072736;28;20267;-74
2023/12/03 03:41:16;;;;;;;45.13;22.47;;;1.00;99.90;;;;;;5072348;28;20216;-74
2023/12/03 03:43:42;;;;;;;48.27;23.57;;;1.00;99.90;;;;;;5075498;28;20628;-73
2023/12/03 03:46:10;;;;;;;48.07;23.63;;;1.00;99.90;;;;;;5074837;28;20210;-73
2023/12/03 03:48:35;;;;;;;47.17;23.10;;;1.00;99.90;;;;;;5075986;28;20180;-74
2023/12/03 03:51:01;;;;;;;52.07;22.80;;;0.90;99.90;;;;;;5076123;28;20169;-74
2023/12/03 03:53:27;;;;;;;46.93;23.43;;;1.00;99.90;;;;;;5075804;28;20184;-74
2023/12/03 03:55:52;;;;;;;48.70;23.30;;;1.10;99.90;;;;;;5075663;28;20524;-75
2023/12/03 03:58:18;;;;;;;50.23;23.00;;;0.90;99.90;;;;;;5075211;28;20219;-74
2023/12/03 04:00:44;;;;;;;49.47;23.47;;;0.90;99.90;;;;;;5075756;28;20277;-74
2023/12/03 04:03:09;;;;;;;46.10;23.20;;;1.00;99.90;;;;;;5075569;28;20168;-76
2023/12/03 04:05:35;;;;;;;45.23;21.07;;;0.90;99.90;;;;;;5075640;28;20180;-74
2023/12/03 04:08:00;;;;;;;48.50;23.47;;;1.00;99.90;;;;;;5075627;28;20196;-74
2023/12/03 04:10:26;;;;;;;44.53;21.73;;;0.90;99.90;;;;;;5075591;28;20618;-75
2023/12/03 04:12:52;;;;;;;45.10;22.20;;;0.90;99.90;;;;;;5075409;28;20183;-74
2023/12/03 04:15:18;;;;;;;44.27;23.03;;;0.90;99.90;;;;;;5075412;28;20180;-74
2023/12/03 04:17:44;;;;;;;51.87;23.20;;;1.00;99.90;;;;;;5075406;28;20475;-74
2023/12/03 04:20:10;;;;;;;45.33;23.40;;;1.00;99.90;;;;;;5075084;28;20235;-74
2023/12/03 04:22:37;;;;;;;43.87;22.77;;;0.90;99.90;;;;;;5074760;28;20176;-74
2023/12/03 04:25:03;;;;;;;45.70;22.17;;;0.90;99.90;;;;;;5075037;28;20237;-75
2023/12/03 04:27:28;;;;;;;45.73;23.20;;;0.90;99.90;;;;;;5073340;28;20323;-73
2023/12/03 04:29:54;;;;;;;43.50;21.40;;;1.00;99.90;;;;;;5075144;28;20164;-74
2023/12/03 04:32:19;;;;;;;47.73;22.50;;;0.90;99.90;;;;;;5075124;28;20169;-74
2023/12/03 04:34:45;;;;;;;44.23;21.13;;;0.90;99.90;;;;;;5075034;28;20172;-74
2023/12/03 04:37:11;;;;;;;41.80;20.77;;;1.00;99.90;;;;;;5073646;28;20206;-74
2023/12/03 04:39:36;;;;;;;43.20;21.63;;;1.00;99.90;;;;;;5074788;28;20200;-74
2023/12/03 04:42:02;;;;;;;43.90;21.73;;;1.00;99.90;;;;;;5074292;28;20176;-74
2023/12/03 04:44:30;;;;;;;41.07;21.07;;;1.00;99.90;;;;;;5074267;28;20235;-73
2023/12/03 04:46:56;;;;;;;44.07;21.20;;;1.00;99.90;;;;;;5074816;28;20204;-74
2023/12/03 04:49:21;;;;;;;43.30;21.07;;;1.00;99.90;;;;;;5074648;28;20658;-74
2023/12/03 04:51:47;;;;;;;44.20;21.30;;;1.00;99.90;;;;;;5074519;28;20184;-74
2023/12/03 04:54:12;;;;;;;40.73;21.03;;;1.00;99.90;;;;;;5072731;28;20234;-73
2023/12/03 04:56:38;;;;;;;46.23;22.67;;;1.00;99.90;;;;;;5073955;28;20693;-73
2023/12/03 04:59:04;;;;;;;41.43;21.60;;;1.10;99.90;;;;;;5074390;28;20177;-73
2023/12/03 05:01:30;;;;;;;39.97;21.43;;;1.10;99.90;;;;;;5074419;28;20208;-74
2023/12/03 05:03:56;;;;;;;44.53;21.97;;;1.10;99.90;;;;;;5073818;28;20663;-74
2023/12/03 05:06:21;;;;;;;46.33;22.03;;;1.10;99.90;;;;;;5074084;28;20179;-73
2023/12/03 05:08:47;;;;;;;45.07;22.87;;;1.10;99.90;;;;;;5073908;28;20624;-74
2023/12/03 05:11:13;;;;;;;38.83;19.27;;;1.10;99.90;;;;;;5073943;28;20176;-74
2023/12/03 05:13:38;;;;;;;38.47;19.70;;;1.10;99.90;;;;;;5073938;28;20163;-74
2023/12/03 05:16:04;;;;;;;42.27;20.77;;;1.00;99.90;;;;;;5074039;28;20171;-74
2023/12/03 05:18:31;;;;;;;38.77;20.17;;;1.00;99.90;;;;;;5073919;28;20259;-74
2023/12/03 05:20:57;;;;;;;39.73;18.73;;;1.00;99.90;;;;;;5074317;28;20204;-74
2023/12/03 05:23:23;;;;;;;38.57;19.70;;;1.00;99.90;;;;;;5073468;28;20179;-74
2023/12/03 05:25:49;;;;;;;41.07;19.50;;;1.00;99.90;;;;;;5073260;28;20229;-75
2023/12/03 05:28:14;;;;;;;38.40;18.77;;;1.00;99.90;;;;;;5073999;28;20566;-74
2023/12/03 05:30:40;;;;;;;39.90;19.43;;;1.00;99.90;;;;;;5073803;28;20651;-74
2023/12/03 05:33:06;;;;;;;38.83;19.30;;;1.00;99.90;;;;;;5073962;28;20184;-74
2023/12/03 05:35:32;;;;;;;34.07;17.50;;;1.00;99.90;;;;;;5073911;28;20211;-73
2023/12/03 05:37:58;;;;;;;35.30;17.13;;;1.00;99.90;;;;;;5073794;28;20181;-74
2023/12/03 05:40:24;;;;;;;33.37;17.43;;;1.00;99.90;;;;;;5071938;28;20216;-74
2023/12/03 05:42:50;;;;;;;37.27;16.63;;;1.00;99.90;;;;;;5073396;28;20171;-75
2023/12/03 05:45:15;;;;;;;34.83;17.53;;;1.10;99.90;;;;;;5072892;28;20179;-74
2023/12/03 05:47:41;;;;;;;31.50;16.97;;;1.10;99.90;;;;;;5073405;28;20178;-75
2023/12/03 05:50:07;;;;;;;30.43;17.50;;;1.00;99.90;;;;;;5072962;28;20169;-74
2023/12/03 05:52:33;;;;;;;33.70;17.00;;;1.10;99.90;;;;;;5071781;28;20255;-74
2023/12/03 05:54:58;;;;;;;33.83;17.30;;;1.10;99.90;;;;;;5072804;28;20188;-74
2023/12/03 05:57:24;;;;;;;32.40;15.97;;;1.10;99.90;;;;;;5072901;28;20164;-76
2023/12/03 05:59:50;;;;;;;32.00;16.10;;;1.20;99.90;;;;;;5072871;28;20652;-74
2023/12/03 06:02:17;;;;;;;35.23;15.90;;;1.20;99.90;;;;;;5071915;28;20184;-74
2023/12/03 06:04:42;;;;;;;31.10;16.30;;;1.20;99.90;;;;;;5072605;28;20180;-74
2023/12/03 06:07:09;;;;;;;28.60;14.73;;;1.20;99.90;;;;;;5073244;28;20172;-74
2023/12/03 06:09:35;;;;;;;27.87;15.17;;;1.20;99.90;;;;;;5072935;28;20195;-74
2023/12/03 06:12:00;;;;;;;31.13;15.37;;;1.20;99.90;;;;;;5072748;28;20215;-74
2023/12/03 06:14:26;;;;;;;32.10;15.17;;;1.20;99.90;;;;;;5072974;28;20168;-75
2023/12/03 06:16:52;;;;;;;27.87;15.10;;;1.20;99.90;;;;;;5072289;28;20585;-75
2023/12/03 06:19:17;;;;;;;30.07;15.03;;;1.30;99.90;;;;;;5072838;28;20522;-74
2023/12/03 06:21:43;;;;;;;26.27;14.60;;;1.40;99.90;;;;;;5072916;28;20207;-74
2023/12/03 06:24:09;;;;;;;28.57;15.10;;;1.40;99.90;;;;;;5072413;28;20169;-75
2023/12/03 06:26:34;;;;;;;27.60;14.47;;;1.30;99.90;;;;;;5072480;28;20699;-74
2023/12/03 06:29:00;;;;;;;27.63;14.90;;;1.30;99.90;;;;;;5055094;28;20207;-75
2023/12/03 06:31:27;;;;;;;27.87;15.20;;;1.40;99.90;;;;;;5073035;28;20215;-74
2023/12/03 06:33:52;;;;;;;27.23;14.23;;;1.30;99.90;;;;;;5072720;28;20176;-74
2023/12/03 06:36:18;;;;;;;28.63;14.67;;;1.30;99.90;;;;;;5072721;28;20662;-75
2023/12/03 06:38:44;;;;;;;28.67;14.83;;;1.30;99.90;;;;;;5072338;28;20172;-74
2023/12/03 06:41:10;;;;;;;31.20;15.13;;;1.30;99.90;;;;;;5072868;28;20207;-74
2023/12/03 06:43:35;;;;;;;25.63;13.87;;;1.30;99.90;;;;;;5072414;28;20171;-74
2023/12/03 06:46:01;;;;;;;26.03;14.53;;;1.30;99.90;;;;;;5070928;28;20172;-74
2023/12/03 06:48:27;;;;;;;30.00;15.10;;;1.30;99.90;;;;;;5072933;28;20255;-74
2023/12/03 06:50:53;;;;;;;30.63;15.17;;;1.30;99.90;;;;;;5071102;28;20175;-74
2023/12/03 06:53:19;;;;;;;27.03;14.90;;;1.30;99.90;;;;;;5072119;28;20198;-75
2023/12/03 06:55:45;;;;;;;26.83;14.23;;;1.20;99.90;;;;;;5071414;28;20172;-75
2023/12/03 06:58:11;;;;;;;30.40;15.60;;;1.30;99.90;;;;;;5072392;28;20179;-75
2023/12/03 07:00:37;;;;;;;26.07;14.40;;;1.30;99.90;;;;;;5072667;28;20207;-73
2023/12/03 07:03:03;;;;;;;26.27;13.93;;;1.30;99.90;;;;;;5071334;28;20169;-74
2023/12/03 07:05:29;;;;;;;29.80;15.13;;;1.40;99.90;;;;;;5072354;28;20639;-74
2023/12/03 07:07:54;;;;;;;31.40;15.00;;;1.30;99.90;;;;;;5072302;28;20172;-75
2023/12/03 07:10:20;;;;;;;29.00;15.00;;;1.30;99.90;;;;;;5070769;28;20636;-74
2023/12/03 07:12:46;;;;;;;28.77;15.13;;;1.30;99.90;;;;;;5072315;28;20172;-75
2023/12/03 07:15:11;;;;;;;27.63;14.33;;;1.40;99.90;;;;;;5072424;28;20173;-75
2023/12/03 07:17:39;;;;;;;28.70;15.43;;;1.40;99.90;;;;;;5074657;28;20222;-75
2023/12/03 07:20:06;;;;;;;24.50;13.40;;;1.40;99.90;;;;;;5075795;28;20235;-74
2023/12/03 07:22:32;;;;;;;27.93;14.57;;;1.50;99.90;;;;;;5076111;28;20160;-74
2023/12/03 07:24:57;;;;;;;26.87;13.93;;;1.50;99.90;;;;;;5075830;28;20697;-75
2023/12/03 07:27:23;;;;;;;27.83;13.47;;;1.50;99.90;;;;;;5075476;28;20254;-74
2023/12/03 07:29:56;;;;;;;24.47;12.90;;;1.40;99.90;;;;;;5075819;28;20226;-74
2023/12/03 07:32:25;;;;;;;29.90;14.53;;;1.50;99.90;;;;;;5075490;28;20176;-75
2023/12/03 07:34:51;;;;;;;26.37;13.27;;;1.50;99.90;;;;;;5075912;28;20263;-76
2023/12/03 07:37:17;;;;;;;28.53;14.27;;;1.40;99.90;;;;;;5075134;28;20256;-75
2023/12/03 07:39:42;;;;;;;25.30;13.93;;;1.50;99.90;;;;;;5075562;28;20242;-75
2023/12/03 07:42:08;;;;;;;24.07;12.87;;;1.50;99.90;;;;;;5075488;28;20164;-76
2023/12/03 07:44:33;;;;;;;25.17;13.67;;;1.60;99.90;;;;;;5075377;28;20251;-75
2023/12/03 07:47:00;;;;;;;26.17;13.67;;;1.70;99.90;;;;;;5075472;28;20690;-75
2023/12/03 07:49:25;;;;;;;24.43;13.47;;;1.70;99.90;;;;;;5075203;28;20179;-75
2023/12/03 07:51:51;;;;;;;24.17;13.33;;;1.70;99.90;;;;;;5075024;28;20590;-75
2023/12/03 07:54:17;;;;;;;27.43;14.03;;;1.60;99.90;;;;;;5075424;28;20165;-75
2023/12/03 07:56:42;;;;;;;25.03;13.07;;;1.60;99.90;;;;;;5075509;28;20233;-75
2023/12/03 07:59:08;;;;;;;27.77;13.83;;;1.70;99.90;;;;;;5075407;28;20247;-74
2023/12/03 08:01:35;;;;;;;25.20;14.00;;;1.60;99.90;;;;;;5075251;28;20291;-75
2023/12/03 08:04:03;;;;;;;26.10;12.80;;;1.70;99.90;;;;;;5074779;28;20168;-76
2023/12/03 08:06:29;;;;;;;25.67;13.63;;;1.70;99.90;;;;;;5074894;28;20625;-75
2023/12/03 08:08:57;;;;;;;25.77;13.20;;;1.70;99.90;;;;;;5073900;28;20624;-75
2023/12/03 08:11:23;;;;;;;26.77;14.40;;;1.70;99.90;;;;;;5074780;28;20269;-75
2023/12/03 08:13:48;;;;;;;30.67;14.60;;;1.70;99.90;;;;;;5075395;28;20652;-75
2023/12/03 08:16:14;;;;;;;23.50;12.70;;;1.70;99.90;;;;;;5075118;28;20552;-75
2023/12/03 08:18:40;;;;;;;24.23;12.70;;;1.80;99.90;;;;;;5075014;28;20481;-76
2023/12/03 08:21:06;;;;;;;25.43;13.30;;;1.80;99.90;;;;;;5074331;28;20295;-76
2023/12/03 08:23:32;;;;;;;26.80;13.63;;;1.80;99.90;;;;;;5073775;28;20334;-75
2023/12/03 08:25:58;;;;;;;24.07;11.93;;;1.90;99.90;;;;;;5074246;28;20227;-76
2023/12/03 08:28:24;;;;;;;24.50;13.43;;;1.90;99.90;;;;;;5074241;28;20188;-75
2023/12/03 08:30:50;;;;;;;23.50;13.43;;;1.80;99.90;;;;;;5075206;28;20621;-75
2023/12/03 08:33:15;;;;;;;25.13;13.23;;;1.80;99.90;;;;;;5074703;28;20164;-76
2023/12/03 08:35:41;;;;;;;25.40;13.27;;;1.90;99.90;;;;;;5074593;28;20173;-76
2023/12/03 08:38:07;;;;;;;23.77;12.63;;;2.00;99.90;;;;;;5074397;28;20165;-76
2023/12/03 08:40:33;;;;;;;24.27;13.43;;;2.00;99.90;;;;;;5074582;28;20299;-76
2023/12/03 08:42:59;;;;;;;25.17;12.53;;;2.10;99.90;;;;;;5074444;28;20170;-76
2023/12/03 08:45:25;;;;;;;25.23;12.70;;;2.10;99.90;;;;;;5073950;28;20175;-75
2023/12/03 08:47:50;;;;;;;22.47;12.83;;;2.20;99.90;;;;;;5073831;28;20252;-76
2023/12/03 08:50:16;;;;;;;21.83;12.50;;;2.30;99.90;;;;;;5073696;28;20211;-75
2023/12/03 08:52:42;;;;;;;21.73;11.60;;;2.40;99.90;;;;;;5073815;28;20617;-75
2023/12/03 08:55:08;;;;;;;20.53;11.60;;;2.30;99.90;;;;;;5073728;28;20190;-76
2023/12/03 08:57:34;;;;;;;22.90;12.23;;;2.40;99.90;;;;;;5073236;28;20168;-75
2023/12/03 09:00:00;;;;;;;18.80;11.37;;;2.30;99.90;;;;;;5074185;28;20195;-77
2023/12/03 09:02:26;;;;;;;25.13;13.00;;;2.40;99.90;;;;;;5073050;28;20165;-76
2023/12/03 09:04:51;;;;;;;23.23;11.63;;;2.40;99.90;;;;;;5073796;28;20248;-75
2023/12/03 09:07:17;;;;;;;23.03;12.43;;;2.50;99.90;;;;;;5073971;28;20701;-75
2023/12/03 09:09:43;;;;;;;20.03;11.40;;;2.40;99.90;;;;;;5073353;28;20502;-76
2023/12/03 09:12:09;;;;;;;25.93;12.47;;;2.50;99.90;;;;;;5073202;28;20677;-75
2023/12/03 09:14:34;;;;;;;24.37;12.27;;;2.50;99.90;;;;;;5073492;28;20215;-75
2023/12/03 09:17:00;;;;;;;21.37;12.10;;;2.50;99.90;;;;;;5072571;28;20173;-76
2023/12/03 09:19:27;;;;;;;22.80;11.63;;;2.50;99.90;;;;;;5072597;28;20279;-75
2023/12/03 09:21:53;;;;;;;22.53;12.13;;;2.60;99.90;;;;;;5073371;28;20192;-76
2023/12/03 09:24:18;;;;;;;24.97;12.43;;;2.50;99.90;;;;;;5072189;28;20182;-76
2023/12/03 09:26:45;;;;;;;23.40;12.30;;;2.50;99.90;;;;;;5073325;28;20216;-75
2023/12/03 09:29:11;;;;;;;22.17;13.33;;;2.50;99.90;;;;;;5072196;28;20282;-76
2023/12/03 09:31:40;;;;;;;22.30;11.10;;;2.60;99.90;;;;;;5072475;28;20169;-75
2023/12/03 09:34:07;;;;;;;26.40;12.63;;;2.50;99.90;;;;;;5073905;28;20177;-75
2023/12/03 09:36:33;;;;;;;21.70;12.47;;;2.50;99.90;;;;;;5073229;28;20169;-75
2023/12/03 09:38:59;;;;;;;22.60;12.50;;;2.60;99.90;;;;;;5072915;28;20183;-75
2023/12/03 09:41:26;;;;;;;24.87;12.50;;;2.60;99.90;;;;;;5072087;28;20217;-76
2023/12/03 09:43:56;;;;;;;26.07;12.03;;;2.70;99.90;;;;;;5071703;28;20581;-76
2023/12/03 09:46:23;;;;;;;24.10;13.03;;;2.50;99.90;;;;;;5073043;28;20281;-75
2023/12/03 09:48:50;;;;;;;21.20;11.67;;;2.60;99.90;;;;;;5072714;28;20176;-75
2023/12/03 09:51:18;;;;;;;20.37;11.50;;;2.60;99.90;;;;;;5073365;28;20165;-76
2023/12/03 09:53:45;;;;;;;27.17;13.67;;;2.50;99.90;;;;;;5072856;28;20169;-75
2023/12/03 09:56:12;;;;;;;21.67;12.47;;;2.50;99.90;;;;;;5073164;28;20168;-74
2023/12/03 09:58:39;;;;;;;22.73;13.07;;;2.50;99.90;;;;;;5073068;28;20176;-76
2023/12/03 10:01:05;;;;;;;24.33;12.43;;;2.60;99.90;;;;;;5072667;28;20208;-75
2023/12/03 10:03:31;;;;;;;25.20;12.17;;;2.60;99.90;;;;;;5073108;28;20624;-76
2023/12/03 10:05:57;;;;;;;23.80;13.37;;;2.60;99.90;;;;;;5072976;28;20186;-74
2023/12/03 10:08:23;;;;;;;26.97;12.70;;;2.60;99.90;;;;;;5072783;28;20172;-76
2023/12/03 10:11:17;;;;;;;25.83;13.40;;;2.60;99.90;;;;;;5071843;28;20577;-75
2023/12/03 10:13:43;;;;;;;26.67;13.03;;;2.70;99.90;;;;;;5069667;28;20230;-74
2023/12/03 10:16:11;;;;;;;22.13;12.57;;;2.60;99.90;;;;;;5072067;28;20621;-75
2023/12/03 10:18:37;;;;;;;25.03;13.67;;;2.70;99.90;;;;;;5072701;28;20195;-75
2023/12/03 10:21:07;;;;;;;19.27;9.90;;;2.60;99.90;;;;;;5072722;28;20200;-75
2023/12/03 10:23:36;;;;;;;22.43;11.97;;;2.70;99.90;;;;;;5072518;28;20317;-76
2023/12/03 10:26:15;;;;;;;28.00;13.20;;;2.60;99.90;;;;;;5071800;28;20705;-75
2023/12/03 10:28:41;;;;;;;25.07;12.60;;;2.60;99.90;;;;;;5071735;28;20533;-74
2023/12/03 10:31:13;;;;;;;25.80;13.73;;;2.60;99.90;;;;;;5072359;28;20213;-76
2023/12/03 10:33:39;;;;;;;27.83;14.57;;;2.70;99.90;;;;;;5072364;28;20169;-76
2023/12/03 10:36:05;;;;;;;26.07;13.40;;;2.80;99.90;;;;;;5072220;28;20164;-75
2023/12/03 10:38:41;;;;;;;26.10;12.97;;;2.80;99.90;;;;;;5072443;28;20195;-74
2023/12/03 10:41:07;;;;;;;22.53;13.53;;;2.80;99.90;;;;;;5072643;28;20196;-76
2023/12/03 10:43:38;;;;;;;22.07;12.93;;;2.90;99.90;;;;;;5072554;28;20180;-75
2023/12/03 10:46:11;;;;;;;23.83;13.40;;;2.90;99.90;;;;;;5071750;28;20180;-74
2023/12/03 10:48:37;;;;;;;24.20;13.37;;;2.90;99.90;;;;;;5072356;28;20168;-75
2023/12/03 10:51:07;;;;;;;26.07;13.43;;;3.00;99.90;;;;;;5072926;28;20172;-75
2023/12/03 10:53:34;;;;;;;24.03;13.07;;;3.00;99.90;;;;;;5075186;28;20205;-75
2023/12/03 10:56:04;;;;;;;25.27;13.83;;;3.10;99.90;;;;;;5076169;28;20172;-75
2023/12/03 10:58:37;;;;;;;24.37;13.70;;;3.20;99.90;;;;;;5075488;28;20175;-75
2023/12/03 11:01:21;;;;;;;26.87;13.53;;;3.20;99.90;;;;;;5074157;28;20216;-75
2023/12/03 11:04:05;;;;;;;20.43;9.27;;;3.30;99.90;;;;;;5075638;28;20168;-76
2023/12/03 11:06:34;;;;;;;25.63;13.10;;;3.30;99.90;;;;;;5076627;28;20168;-76
2023/12/03 11:09:00;;;;;;;30.17;14.13;;;3.40;99.90;;;;;;5075677;28;20176;-75
2023/12/03 11:11:26;;;;;;;27.47;13.83;;;3.60;99.90;;;;;;5075826;28;20302;-76
2023/12/03 11:13:54;;;;;;;25.33;13.07;;;3.70;99.90;;;;;;5075761;28;20267;-76
2023/12/03 11:16:21;;;;;;;25.30;13.93;;;3.80;99.90;;;;;;5075938;28;20177;-76
2023/12/03 11:18:56;;;;;;;25.10;13.47;;;3.80;99.90;;;;;;5075693;28;20264;-77
2023/12/03 11:21:35;;;;;;;23.47;12.97;;;3.80;99.90;;;;;;5074684;28;20215;-75
2023/12/03 11:24:34;;;;;;;23.17;13.37;;;3.80;99.90;;;;;;5074844;28;20273;-76
2023/12/03 11:26:59;;;;;;;27.20;13.60;;;3.90;99.90;;;;;;5074111;28;20324;-75
2023/12/03 11:29:51;;;;;;;23.23;13.27;;;3.90;99.90;;;;;;5074945;28;20208;-77
2023/12/03 11:32:18;;;;;;;22.40;13.63;;;3.90;99.90;;;;;;5075394;28;20711;-75
2023/12/03 11:34:49;;;;;;;21.40;12.27;;;3.80;99.90;;;;;;5075806;28;20164;-76
2023/12/03 11:37:14;;;;;;;23.63;13.37;;;3.60;99.90;;;;;;5075318;28;20164;-76
2023/12/03 11:39:42;;;;;;;22.93;13.43;;;3.50;99.90;;;;;;5075428;28;20716;-76
2023/12/03 11:42:09;;;;;;;29.93;16.23;;;3.50;99.90;;;;;;5074918;28;20256;-76
2023/12/03 11:44:35;;;;;;;23.30;13.43;;;3.60;99.90;;;;;;5075432;28;20168;-75
2023/12/03 11:47:07;;;;;;;46.03;25.73;;;3.60;99.90;;;;;;5075156;28;20187;-75
2023/12/03 11:49:34;;;;;;;110.07;60.57;;;3.70;99.90;;;;;;5074273;28;20175;-76
2023/12/03 11:52:02;;;;;;;30.17;18.03;;;3.70;99.90;;;;;;5073536;28;20247;-75
2023/12/03 11:55:05;;;;;;;21.67;12.43;;;3.60;99.90;;;;;;5075235;28;20180;-76
2023/12/03 11:57:35;;;;;;;61.30;34.87;;;3.50;99.90;;;;;;5071856;28;20176;-76
2023/12/03 12:00:01;;;;;;;21.70;11.53;;;3.50;99.90;;;;;;5074390;28;20201;-76
2023/12/03 12:02:26;;;;;;;26.60;17.73;;;3.50;99.90;;;;;;5073694;28;20493;-76
2023/12/03 12:04:52;;;;;;;26.23;13.17;;;3.40;99.90;;;;;;5073248;28;20179;-76
2023/12/03 12:07:18;;;;;;;16.37;8.77;;;3.40;99.90;;;;;;5074653;28;20624;-75
2023/12/03 12:09:50;;;;;;;28.13;16.23;;;3.40;99.90;;;;;;5074574;28;20168;-76
2023/12/03 12:12:17;;;;;;;27.17;18.33;;;3.50;99.90;;;;;;5074135;28;20182;-76
2023/12/03 12:14:44;;;;;;;17.70;10.10;;;3.60;99.90;;;;;;5074421;28;20165;-76
2023/12/03 12:17:09;;;;;;;25.80;16.57;;;3.60;99.90;;;;;;5074430;28;20636;-75
2023/12/03 12:19:35;;;;;;;22.70;13.63;;;3.50;99.90;;;;;;5074341;28;20172;-75
2023/12/03 12:22:01;;;;;;;19.97;11.53;;;3.40;99.90;;;;;;5074741;28;20627;-74
2023/12/03 12:24:27;;;;;;;20.40;10.87;;;3.20;99.90;;;;;;5074609;28;20188;-76
2023/12/03 12:26:54;;;;;;;23.30;10.57;;;3.20;99.90;;;;;;5072687;28;20284;-75
2023/12/03 12:29:22;;;;;;;23.27;12.70;;;3.10;99.90;;;;;;5072763;28;20589;-75
2023/12/03 12:31:47;;;;;;;21.87;11.70;;;3.10;99.90;;;;;;5074980;28;20252;-76
2023/12/03 12:34:33;;;;;;;26.30;15.47;;;3.00;99.90;;;;;;5074984;28;20606;-75